Lackawanna, NY (14218)

5:13 AM EDT on September 25, 2016 (GMT -0400)
So Buffalo/West Seneca line | | Change Station

Elev 617 ft 42.85 °N, 78.80 °W | Updated 12 minutes ago

Clear
Clear
42.3 °F
Feels Like 42 °F
N
0.0
Wind Variable Wind from SSE

Today
High -- | Low -- °F
--% Chance of Precip.
Yesterday
High -- | Low -- °F
Precip. -- in
Pressure 30.25 in
Visibility 10.0 miles
Clouds Clear
Windchill 42 °F
Dew Point 38 °F
Humidity 86%
Rainfall 0.00 in
Snow Depth Not available.
7:06 AM 7:06 PM
Waning Crescent, 29% visible
METAR KBUF 250854Z 00000KT 10SM CLR 07/04 A3024 RMK AO2 SLP242 T00720044 58001
Pressure 30.25 in
Visibility 10.0 miles
Clouds Clear
Windchill 42 °F
Dew Point 38 °F
Humidity 86%
Rainfall 0.00 in
Snow Depth Not available.
7:06 AM 7:06 PM
Waning Crescent, 29% visible
METAR KBUF 250854Z 00000KT 10SM CLR 07/04 A3024 RMK AO2 SLP242 T00720044 58001

10-Day Weather Forecast

Almanac

Astronomy

Sep. 25, 2016 Rise Set
Actual Time
Civil Twilight
Nautical Twilight
Astronomical Twilight
Moon
Length of Visible Light
Length of Day
Tomorrow will be .
, % of the Moon is Illuminated

Today's Extremes

State Highs State Lows

Community

WunderPhotos

Upload Photos

1,941,554 photos uploaded!

WunderBlog® & News

Nearby

Air Quality

  Air Quality AQ Index Pollutant
Not available.

Snow Depth

Station Depth Elevation

Earthquake Activity

City Distance Mag. Time & Date
Minimum magnitude displayed is 2.5.

Coastal Water Temperatures

Place Temperature

Stations

Nearby Weather Stations

Station Location Temp. Windchill Dew Point Humidity Wind Precip. Elev Updated Type
                   

Watches & Warnings

There are currently no watches in effect.